Time;durP1;ratioP1;P1;durP2;ratioP2;P2;SDS_P1;SDS_P2;PMS_P1;PMS_P2;Temp;Humidity;BMP_temperature;BMP_pressure;BME280_temperature;BME280_humidity;BME280_pressure;Samples;Min_cycle;Max_cycle;Signal;HPM_P1;HPM_P2
2022/12/14 00:01:07;;;;;;;7.93;7.13;;;-1.10;72.50;;;;;;5025093;28;20813;-76
2022/12/14 00:03:34;;;;;;;7.30;6.60;;;-1.20;72.70;;;;;;5020830;28;20442;-75
2022/12/14 00:06:12;;;;;;;7.50;6.70;;;-1.20;72.80;;;;;;5022000;28;20510;-76
2022/12/14 00:08:39;;;;;;;8.18;6.70;;;-1.20;72.50;;;;;;5022517;28;20534;-76
2022/12/14 00:11:06;;;;;;;6.85;6.15;;;-1.20;72.90;;;;;;5024269;28;20419;-75
2022/12/14 00:13:33;;;;;;;6.90;6.20;;;-1.20;73.00;;;;;;5022731;28;22302;-75
2022/12/14 00:16:05;;;;;;;7.10;6.10;;;-1.20;73.20;;;;;;5021876;28;20434;-76
2022/12/14 00:18:32;;;;;;;7.50;6.13;;;-1.20;73.30;;;;;;5023245;28;20794;-76
2022/12/14 00:21:03;;;;;;;6.90;6.20;;;-1.20;73.50;;;;;;5015972;28;20443;-76
2022/12/14 00:23:31;;;;;;;6.93;6.22;;;-1.20;73.30;;;;;;5024870;28;20446;-75
2022/12/14 00:25:58;;;;;;;7.40;6.60;;;-1.20;73.10;;;;;;5024906;28;20512;-75
2022/12/14 00:28:25;;;;;;;7.00;6.30;;;-1.20;73.00;;;;;;5015901;28;20442;-73
2022/12/14 00:30:57;;;;;;;7.35;6.47;;;-1.20;72.80;;;;;;5024343;28;20419;-76
2022/12/14 00:33:23;;;;;;;7.60;6.80;;;-1.20;73.20;;;;;;5025488;28;20415;-73
2022/12/14 00:35:50;;;;;;;8.50;6.80;;;-1.20;72.90;;;;;;5025040;28;20431;-74
2022/12/14 00:38:17;;;;;;;7.30;6.60;;;-1.20;72.90;;;;;;5024226;28;20427;-74
2022/12/14 00:40:45;;;;;;;7.20;6.55;;;-1.20;73.40;;;;;;5025524;28;20488;-75
2022/12/14 00:43:12;;;;;;;8.30;7.30;;;-1.20;73.20;;;;;;5024268;28;20434;-75
2022/12/14 00:45:39;;;;;;;7.53;6.82;;;-1.20;73.30;;;;;;5034138;28;20426;-76
2022/12/14 00:48:06;;;;;;;7.72;6.82;;;-1.20;72.90;;;;;;5040764;28;20424;-75
2022/12/14 00:50:33;;;;;;;7.43;6.30;;;-1.20;73.20;;;;;;5029333;28;20440;-76
2022/12/14 00:53:00;;;;;;;8.00;7.00;;;-1.20;73.30;;;;;;5039423;28;20442;-75
2022/12/14 00:55:27;;;;;;;7.50;6.68;;;-1.20;73.20;;;;;;5029315;28;20418;-75
2022/12/14 00:57:55;;;;;;;8.05;6.80;;;-1.20;73.70;;;;;;5028865;28;20430;-75
2022/12/14 01:00:22;;;;;;;6.70;5.97;;;-1.20;73.50;;;;;;5027314;28;20903;-75
2022/12/14 01:02:48;;;;;;;7.40;6.70;;;-1.20;73.40;;;;;;5028434;28;20419;-75
2022/12/14 01:05:15;;;;;;;7.18;6.47;;;-1.10;73.00;;;;;;5027211;28;20515;-75
2022/12/14 01:07:42;;;;;;;8.00;6.80;;;-1.10;72.90;;;;;;5027936;28;20422;-75
2022/12/14 01:10:09;;;;;;;6.90;6.20;;;-1.20;73.10;;;;;;5028270;28;20411;-75
2022/12/14 01:12:36;;;;;;;6.95;6.25;;;-1.20;73.10;;;;;;5026663;28;20439;-75
2022/12/14 01:15:05;;;;;;;6.38;5.68;;;-1.20;73.60;;;;;;5023653;28;20430;-76
2022/12/14 01:17:32;;;;;;;7.05;6.35;;;-1.20;73.90;;;;;;5026106;28;20652;-75
2022/12/14 01:19:58;;;;;;;6.87;6.17;;;-1.10;73.40;;;;;;5019378;28;20907;-75
2022/12/14 01:22:25;;;;;;;7.05;6.18;;;-1.10;73.10;;;;;;5027120;28;20450;-75
2022/12/14 01:24:52;;;;;;;6.63;6.03;;;-1.00;73.10;;;;;;5029050;28;20438;-75
2022/12/14 01:27:19;;;;;;;6.82;6.13;;;-1.10;72.70;;;;;;5029095;28;20924;-75
2022/12/14 01:29:45;;;;;;;6.30;5.70;;;-1.10;72.60;;;;;;5028523;28;20426;-75
2022/12/14 01:32:14;;;;;;;6.38;5.70;;;-1.00;72.40;;;;;;5028189;28;20514;-75
2022/12/14 01:34:40;;;;;;;7.20;5.93;;;-1.00;72.10;;;;;;5032364;28;20533;-75
2022/12/14 01:37:07;;;;;;;6.18;5.50;;;-1.10;72.00;;;;;;5041537;28;20525;-76
2022/12/14 01:39:34;;;;;;;6.70;5.68;;;-1.00;72.10;;;;;;5027429;28;20436;-75
2022/12/14 01:42:00;;;;;;;6.78;6.07;;;-1.10;72.00;;;;;;5021208;28;20421;-75
2022/12/14 01:44:51;;;;;;;6.10;5.47;;;-1.10;72.40;;;;;;5038492;28;20435;-75
2022/12/14 01:47:23;;;;;;;7.20;5.70;;;-1.10;72.20;;;;;;5029638;28;20435;-74
2022/12/14 01:49:53;;;;;;;6.53;5.53;;;-1.10;72.50;;;;;;5025351;28;20422;-76
2022/12/14 01:52:24;;;;;;;6.10;5.50;;;-1.10;73.30;;;;;;5027781;28;20443;-74
2022/12/14 01:54:56;;;;;;;6.95;6.00;;;-1.10;72.60;;;;;;5026694;28;20431;-73
2022/12/14 01:57:27;;;;;;;6.20;5.50;;;-1.10;72.50;;;;;;5026342;28;20449;-73
2022/12/14 01:59:55;;;;;;;6.70;6.00;;;-1.10;72.50;;;;;;5018666;28;20436;-73
2022/12/14 02:02:24;;;;;;;6.40;5.70;;;-1.10;72.70;;;;;;5021681;28;20907;-74
2022/12/14 02:04:55;;;;;;;7.30;5.60;;;-1.20;73.60;;;;;;5017787;28;20916;-74
2022/12/14 02:07:24;;;;;;;7.22;5.28;;;-1.20;72.70;;;;;;5027524;28;20423;-73
2022/12/14 02:09:52;;;;;;;6.22;5.63;;;-1.20;72.70;;;;;;5027011;28;20427;-73
2022/12/14 02:12:25;;;;;;;6.80;5.63;;;-1.10;72.60;;;;;;5025882;28;20434;-73
2022/12/14 02:14:53;;;;;;;7.13;5.90;;;-1.10;72.00;;;;;;5028104;28;20920;-74
2022/12/14 02:17:20;;;;;;;6.03;5.40;;;-1.20;72.40;;;;;;5023932;28;20436;-74
2022/12/14 02:19:48;;;;;;;6.30;5.70;;;-1.20;72.30;;;;;;5024964;28;20450;-72
2022/12/14 02:22:35;;;;;;;6.60;5.50;;;-1.20;72.70;;;;;;5024504;28;20639;-74
2022/12/14 02:25:33;;;;;;;6.00;5.40;;;-1.20;73.20;;;;;;5025185;28;20430;-76
2022/12/14 02:28:17;;;;;;;6.03;5.50;;;-1.30;74.10;;;;;;5020330;28;20882;-74
2022/12/14 02:30:51;;;;;;;6.10;5.10;;;-1.30;73.50;;;;;;5023572;28;20904;-74
2022/12/14 02:33:33;;;;;;;6.20;5.60;;;-1.30;73.10;;;;;;5013861;28;20906;-75
2022/12/14 02:36:05;;;;;;;6.38;4.95;;;-1.30;73.20;;;;;;5024737;28;20486;-75
2022/12/14 02:38:45;;;;;;;5.35;4.85;;;-1.30;73.20;;;;;;5025638;28;20419;-75
2022/12/14 02:41:17;;;;;;;5.23;4.73;;;-1.20;72.50;;;;;;5007927;28;20417;-75
2022/12/14 02:43:53;;;;;;;6.38;5.70;;;-1.20;72.50;;;;;;5027545;28;20441;-75
2022/12/14 02:46:28;;;;;;;5.35;4.85;;;-1.20;72.70;;;;;;5012667;28;20439;-75
2022/12/14 02:48:59;;;;;;;5.60;5.10;;;-1.20;72.30;;;;;;5028119;28;20431;-73
2022/12/14 02:51:40;;;;;;;5.82;5.05;;;-1.20;72.70;;;;;;5025225;28;20882;-73
2022/12/14 02:54:13;;;;;;;5.50;4.80;;;-1.20;72.60;;;;;;5030909;28;20426;-73
2022/12/14 02:56:44;;;;;;;4.97;4.57;;;-1.20;72.80;;;;;;5029772;28;20514;-75
2022/12/14 02:59:13;;;;;;;5.97;5.38;;;-1.20;72.70;;;;;;5024117;28;20457;-75
2022/12/14 03:01:42;;;;;;;5.10;4.60;;;-1.20;72.90;;;;;;5026196;28;20861;-75
2022/12/14 03:04:09;;;;;;;5.55;5.05;;;-1.20;72.50;;;;;;5023952;28;20441;-75
2022/12/14 03:06:35;;;;;;;5.10;4.60;;;-1.20;72.80;;;;;;5025791;28;20415;-75
2022/12/14 03:09:05;;;;;;;5.38;4.88;;;-1.20;72.80;;;;;;5025902;28;20419;-74
2022/12/14 03:11:37;;;;;;;7.20;5.30;;;-1.20;72.40;;;;;;5023838;28;20435;-73
2022/12/14 03:14:08;;;;;;;5.22;4.70;;;-1.20;72.10;;;;;;5023103;28;20908;-74
2022/12/14 03:16:40;;;;;;;6.60;5.03;;;-1.20;72.10;;;;;;5019309;28;20431;-72
2022/12/14 03:19:15;;;;;;;5.80;5.10;;;-1.20;72.40;;;;;;5024309;28;20439;-74
2022/12/14 03:21:45;;;;;;;5.30;4.80;;;-1.20;72.30;;;;;;5024544;28;20500;-74
2022/12/14 03:24:19;;;;;;;4.70;4.30;;;-1.20;72.40;;;;;;5016369;28;20522;-75
2022/12/14 03:26:49;;;;;;;5.38;4.70;;;-1.20;72.30;;;;;;5025229;28;20446;-73
2022/12/14 03:29:22;;;;;;;5.10;4.60;;;-1.20;72.60;;;;;;5025125;28;20442;-72
2022/12/14 03:31:54;;;;;;;5.60;4.78;;;-1.20;72.50;;;;;;5019982;28;20458;-72
2022/12/14 03:34:27;;;;;;;5.23;4.73;;;-1.20;72.70;;;;;;5020641;28;20526;-74
2022/12/14 03:36:59;;;;;;;5.82;4.82;;;-1.20;73.10;;;;;;5024284;28;20434;-76
2022/12/14 03:39:29;;;;;;;5.40;4.90;;;-1.20;73.00;;;;;;5024895;28;20518;-74
2022/12/14 03:42:04;;;;;;;5.20;4.70;;;-1.20;72.70;;;;;;5024691;28;20534;-75
2022/12/14 03:44:36;;;;;;;4.95;4.45;;;-1.10;72.80;;;;;;5023954;28;20434;-74
2022/12/14 03:47:13;;;;;;;5.47;4.50;;;-1.10;72.10;;;;;;5024489;28;20777;-73
2022/12/14 03:49:53;;;;;;;5.40;4.60;;;-1.10;72.60;;;;;;5024870;28;20419;-75
2022/12/14 03:52:28;;;;;;;5.68;4.93;;;-1.10;72.50;;;;;;5024879;28;20414;-75
2022/12/14 03:55:05;;;;;;;4.90;4.40;;;-1.10;72.30;;;;;;5024237;28;20433;-75
2022/12/14 03:57:52;;;;;;;5.10;4.60;;;-1.10;72.50;;;;;;5024082;28;20445;-75
2022/12/14 04:00:22;;;;;;;5.03;4.63;;;-1.00;72.40;;;;;;5023839;28;20434;-75
2022/12/14 04:02:53;;;;;;;5.20;4.70;;;-1.10;72.60;;;;;;5024808;28;20477;-73
2022/12/14 04:05:28;;;;;;;5.57;4.45;;;-1.10;72.30;;;;;;5017366;28;20502;-75
2022/12/14 04:08:04;;;;;;;5.30;4.60;;;-1.00;72.10;;;;;;5024378;28;20415;-73
2022/12/14 04:19:11;;;;;;;5.63;5.10;;;-1.00;71.70;;;;;;4998861;28;20418;-73
2022/12/14 04:21:44;;;;;;;4.93;4.47;;;-1.10;72.40;;;;;;5024475;28;20434;-75
2022/12/14 04:27:05;;;;;;;5.40;4.90;;;-1.10;72.30;;;;;;5029040;28;20907;-75
2022/12/14 04:32:24;;;;;;;5.15;4.65;;;-1.00;72.10;;;;;;5021743;28;20627;-75
2022/12/14 04:34:54;;;;;;;5.20;4.70;;;-1.00;72.00;;;;;;5026302;28;20438;-74
2022/12/14 04:37:26;;;;;;;5.28;4.50;;;-1.00;72.00;;;;;;5027830;28;20805;-75
2022/12/14 04:39:56;;;;;;;5.70;4.65;;;-1.00;71.90;;;;;;5027436;28;20423;-74
2022/12/14 04:42:28;;;;;;;4.88;4.47;;;-1.00;72.10;;;;;;5026478;28;20733;-74
2022/12/14 04:45:00;;;;;;;5.32;4.80;;;-1.00;72.10;;;;;;5026704;28;20441;-75
2022/12/14 04:47:34;;;;;;;5.10;4.60;;;-1.00;72.10;;;;;;5029163;28;20431;-75
2022/12/14 04:50:06;;;;;;;7.40;4.80;;;-0.90;71.70;;;;;;5033541;28;20403;-75
2022/12/14 04:52:39;;;;;;;5.70;5.10;;;-0.90;71.60;;;;;;5039462;28;20493;-74
2022/12/14 04:55:12;;;;;;;5.65;5.00;;;-1.00;72.10;;;;;;5040376;28;20490;-75
2022/12/14 04:57:45;;;;;;;5.70;5.10;;;-1.00;72.70;;;;;;5039515;28;20446;-75
2022/12/14 05:00:13;;;;;;;6.80;6.03;;;-1.00;72.80;;;;;;5029652;28;20454;-74
2022/12/14 05:03:04;;;;;;;6.27;5.40;;;-1.00;72.90;;;;;;5028436;28;20466;-74
2022/12/14 05:05:36;;;;;;;5.83;5.33;;;-1.00;72.80;;;;;;5025414;28;20448;-75
2022/12/14 05:08:09;;;;;;;6.10;4.95;;;-1.00;73.20;;;;;;5025328;28;20442;-75
2022/12/14 05:10:40;;;;;;;5.60;5.10;;;-1.00;73.10;;;;;;5034897;28;20429;-75
2022/12/14 05:13:13;;;;;;;6.15;5.35;;;-1.00;73.10;;;;;;5023187;28;20446;-75
2022/12/14 05:15:43;;;;;;;5.35;4.85;;;-1.00;73.20;;;;;;5023146;28;20435;-75
2022/12/14 05:18:10;;;;;;;5.68;5.18;;;-1.00;72.90;;;;;;5025016;28;20857;-75
2022/12/14 05:20:37;;;;;;;6.60;5.50;;;-1.00;73.10;;;;;;5025355;28;20445;-75
2022/12/14 05:23:05;;;;;;;5.85;5.20;;;-0.90;73.10;;;;;;5026493;28;20415;-75
2022/12/14 05:25:32;;;;;;;5.38;4.88;;;-0.90;72.70;;;;;;5030448;28;20471;-75
2022/12/14 05:27:59;;;;;;;5.78;5.00;;;-0.90;72.80;;;;;;5037769;28;20939;-75
2022/12/14 05:30:26;;;;;;;5.78;5.28;;;-0.90;72.90;;;;;;5025728;28;20442;-74
2022/12/14 05:32:53;;;;;;;6.20;5.30;;;-1.00;73.10;;;;;;5023215;28;20435;-75
2022/12/14 05:35:20;;;;;;;5.53;5.03;;;-1.00;73.10;;;;;;5028175;28;20425;-75
2022/12/14 05:37:47;;;;;;;5.50;4.97;;;-1.00;72.40;;;;;;5027786;28;20426;-74
2022/12/14 05:40:15;;;;;;;5.25;4.75;;;-1.00;72.40;;;;;;5024904;28;20453;-75
2022/12/14 05:42:42;;;;;;;5.40;4.90;;;-1.00;72.30;;;;;;5019846;28;20450;-75
2022/12/14 05:45:11;;;;;;;5.47;4.97;;;-1.00;72.50;;;;;;5020608;28;20446;-75
2022/12/14 05:47:37;;;;;;;6.13;5.20;;;-1.00;72.70;;;;;;5018100;28;20431;-75
2022/12/14 05:50:05;;;;;;;5.78;5.20;;;-1.00;72.40;;;;;;5023350;28;20454;-75
2022/12/14 05:52:32;;;;;;;6.28;5.13;;;-1.00;72.40;;;;;;5023721;28;20829;-76
2022/12/14 05:54:59;;;;;;;5.40;4.90;;;-1.00;72.50;;;;;;5022869;28;20435;-77
2022/12/14 05:57:27;;;;;;;7.70;5.40;;;-1.00;72.80;;;;;;5015860;28;20443;-77
2022/12/14 05:59:54;;;;;;;6.70;5.30;;;-1.10;73.30;;;;;;5021455;28;21085;-76
2022/12/14 06:02:20;;;;;;;6.20;5.70;;;-1.00;72.60;;;;;;5020835;28;20743;-75
2022/12/14 06:04:47;;;;;;;5.30;4.80;;;-1.00;73.10;;;;;;5023456;28;20427;-77
2022/12/14 06:07:14;;;;;;;5.50;5.00;;;-1.00;73.20;;;;;;5019777;28;20442;-77
2022/12/14 06:09:41;;;;;;;5.90;5.30;;;-1.00;73.40;;;;;;5025626;28;20522;-77
2022/12/14 06:12:07;;;;;;;6.10;5.47;;;-1.00;73.20;;;;;;5021976;28;20435;-75
2022/12/14 06:14:35;;;;;;;6.10;5.40;;;-1.00;72.90;;;;;;5022130;28;20434;-75
2022/12/14 06:17:02;;;;;;;7.20;6.50;;;-1.00;72.80;;;;;;5025001;28;20537;-75
2022/12/14 06:19:29;;;;;;;6.90;6.00;;;-1.00;73.20;;;;;;5026767;28;20516;-75
2022/12/14 06:21:56;;;;;;;6.72;5.22;;;-0.90;73.30;;;;;;5035450;28;20417;-76
2022/12/14 06:24:23;;;;;;;6.95;5.50;;;-0.90;72.50;;;;;;5030928;28;21014;-76
2022/12/14 06:26:50;;;;;;;5.90;5.30;;;-1.00;72.80;;;;;;5031672;28;20427;-75
2022/12/14 06:29:19;;;;;;;5.97;5.18;;;-1.00;73.00;;;;;;5022553;28;20484;-76
2022/12/14 06:31:47;;;;;;;6.82;4.90;;;-1.00;73.10;;;;;;5015609;28;20448;-76
2022/12/14 06:34:14;;;;;;;5.80;5.20;;;-1.00;73.40;;;;;;5021492;28;21012;-75
2022/12/14 06:36:42;;;;;;;5.90;5.35;;;-0.90;73.30;;;;;;5025711;28;20426;-75
2022/12/14 06:39:11;;;;;;;5.53;5.03;;;-0.90;72.90;;;;;;5040609;28;20445;-75
2022/12/14 06:41:39;;;;;;;6.40;5.80;;;-0.90;72.60;;;;;;5025798;28;20430;-75
2022/12/14 06:44:07;;;;;;;6.97;5.10;;;-0.90;73.00;;;;;;5032105;28;20439;-75
2022/12/14 06:46:35;;;;;;;6.70;5.00;;;-1.00;73.50;;;;;;5025707;28;20443;-75
2022/12/14 06:49:05;;;;;;;7.72;5.18;;;-1.00;73.50;;;;;;5028781;28;20449;-74
2022/12/14 06:51:37;;;;;;;5.72;5.13;;;-0.90;73.00;;;;;;5025214;28;20447;-75
2022/12/14 06:54:04;;;;;;;6.27;5.30;;;-0.90;73.10;;;;;;5025297;28;21016;-76
2022/12/14 06:56:31;;;;;;;6.72;5.45;;;-0.90;73.90;;;;;;5024328;28;20817;-75
2022/12/14 06:58:58;;;;;;;6.20;4.97;;;-0.90;73.80;;;;;;5024155;28;20435;-75
2022/12/14 07:01:26;;;;;;;5.60;4.90;;;-0.80;71.80;;;;;;5025268;28;20431;-75
2022/12/14 07:03:54;;;;;;;5.85;4.70;;;-0.80;71.60;;;;;;5038301;28;20421;-76
2022/12/14 07:06:23;;;;;;;6.95;5.20;;;-0.80;72.30;;;;;;5026127;28;20929;-75
2022/12/14 07:08:53;;;;;;;6.35;5.30;;;-0.90;71.70;;;;;;5018328;28;20963;-75
2022/12/14 07:11:19;;;;;;;5.63;5.03;;;-0.80;71.60;;;;;;5020224;28;20438;-74
2022/12/14 07:13:46;;;;;;;6.10;5.50;;;-0.80;72.10;;;;;;5031814;28;20429;-75
2022/12/14 07:16:17;;;;;;;7.20;5.70;;;-0.80;71.80;;;;;;5025712;28;20401;-75
2022/12/14 07:18:43;;;;;;;6.25;5.40;;;-0.80;71.70;;;;;;5024636;28;20419;-75
2022/12/14 07:21:13;;;;;;;8.00;5.50;;;-0.80;71.40;;;;;;5025441;28;20454;-75
2022/12/14 07:23:43;;;;;;;6.10;5.28;;;-0.80;71.60;;;;;;5037247;28;20426;-75
2022/12/14 07:26:12;;;;;;;6.55;5.30;;;-0.80;71.70;;;;;;5024676;28;20418;-77
2022/12/14 07:28:39;;;;;;;6.70;6.00;;;-0.80;72.00;;;;;;5020947;28;20435;-75
2022/12/14 07:31:10;;;;;;;5.97;5.38;;;-0.80;71.80;;;;;;5017675;28;20974;-75
2022/12/14 07:33:37;;;;;;;6.78;5.68;;;-0.80;71.20;;;;;;5018759;28;20497;-75
2022/12/14 07:36:05;;;;;;;6.57;5.97;;;-0.70;71.20;;;;;;5025609;28;20429;-75
2022/12/14 07:38:32;;;;;;;9.15;6.40;;;-0.70;71.00;;;;;;5023614;28;20445;-75
2022/12/14 07:41:05;;;;;;;6.10;5.50;;;-0.80;71.00;;;;;;5022722;28;20431;-75
2022/12/14 07:43:32;;;;;;;6.60;5.60;;;-0.80;71.10;;;;;;5021336;28;20435;-75
2022/12/14 07:46:01;;;;;;;7.65;6.28;;;-0.80;71.60;;;;;;5022189;28;20629;-75
2022/12/14 07:48:28;;;;;;;6.40;5.80;;;-0.80;71.70;;;;;;5024768;28;20427;-75
2022/12/14 07:50:55;;;;;;;6.38;5.78;;;-0.80;72.00;;;;;;5021904;28;20434;-75
2022/12/14 07:53:21;;;;;;;9.07;6.30;;;-0.80;72.10;;;;;;5025383;28;20431;-76
2022/12/14 07:55:48;;;;;;;6.75;6.00;;;-0.80;71.80;;;;;;5019937;28;20434;-75
2022/12/14 07:58:16;;;;;;;6.43;5.50;;;-0.70;71.50;;;;;;5022595;28;20449;-75
2022/12/14 08:00:43;;;;;;;7.82;6.28;;;-0.70;71.30;;;;;;5021241;28;20517;-75
2022/12/14 08:03:10;;;;;;;8.73;6.20;;;-0.70;70.80;;;;;;5020848;28;20442;-76
2022/12/14 08:05:38;;;;;;;6.70;6.10;;;-0.70;70.90;;;;;;5024269;28;20426;-75
2022/12/14 08:08:05;;;;;;;6.55;5.85;;;-0.70;71.00;;;;;;5026950;28;20459;-76
2022/12/14 08:10:32;;;;;;;6.65;5.75;;;-0.70;70.80;;;;;;5034582;28;20438;-75
2022/12/14 08:12:59;;;;;;;7.25;5.80;;;-0.70;70.80;;;;;;5035499;28;20513;-75
2022/12/14 08:15:27;;;;;;;6.78;6.07;;;-0.70;71.20;;;;;;5032843;28;20435;-75
2022/12/14 08:17:54;;;;;;;7.40;6.17;;;-0.70;71.40;;;;;;5029297;28;20427;-75
2022/12/14 08:20:20;;;;;;;6.45;5.85;;;-0.70;72.10;;;;;;5035232;28;20556;-76
2022/12/14 08:22:50;;;;;;;7.85;6.03;;;-0.70;71.90;;;;;;5022615;28;20771;-74
2022/12/14 08:25:17;;;;;;;6.70;6.00;;;-0.60;71.70;;;;;;5023705;28;21041;-75
2022/12/14 08:27:45;;;;;;;6.85;6.15;;;-0.60;71.40;;;;;;5019771;28;20457;-75
2022/12/14 08:30:12;;;;;;;6.18;5.57;;;-0.60;71.30;;;;;;5024122;28;20434;-75
2022/12/14 08:32:40;;;;;;;6.90;6.05;;;-0.60;72.00;;;;;;5021614;28;20497;-76
2022/12/14 08:35:08;;;;;;;6.90;6.20;;;-0.60;71.60;;;;;;5023660;28;20474;-73
2022/12/14 08:37:34;;;;;;;7.57;6.60;;;-0.50;71.60;;;;;;5023307;28;20433;-76
2022/12/14 08:40:02;;;;;;;6.70;6.07;;;-0.50;71.30;;;;;;5016658;28;20427;-75
2022/12/14 08:42:29;;;;;;;7.32;6.35;;;-0.50;70.90;;;;;;5016360;28;20452;-76
2022/12/14 08:44:55;;;;;;;6.80;6.10;;;-0.50;71.10;;;;;;5019824;28;20450;-70
2022/12/14 08:47:22;;;;;;;6.55;5.95;;;-0.40;71.10;;;;;;5021611;28;20542;-64
2022/12/14 08:49:50;;;;;;;7.18;6.38;;;-0.40;71.20;;;;;;5024571;28;20616;-69
2022/12/14 08:52:20;;;;;;;7.20;6.50;;;-0.40;71.00;;;;;;5018418;28;20483;-75
2022/12/14 08:54:47;;;;;;;7.10;6.00;;;-0.30;70.70;;;;;;5022056;28;20509;-72
2022/12/14 08:57:13;;;;;;;7.00;6.30;;;-0.30;71.30;;;;;;5021240;28;20438;-75
2022/12/14 08:59:40;;;;;;;8.13;6.80;;;-0.30;71.40;;;;;;5020591;28;20454;-72
2022/12/14 09:02:07;;;;;;;8.77;6.80;;;-0.20;71.40;;;;;;5017251;28;20498;-72
2022/12/14 09:04:34;;;;;;;6.90;6.30;;;-0.20;71.90;;;;;;5016869;28;20442;-75
2022/12/14 09:07:03;;;;;;;7.43;6.72;;;-0.20;71.00;;;;;;5015345;28;20427;-76
2022/12/14 09:09:29;;;;;;;7.60;6.80;;;-0.30;71.40;;;;;;5018694;28;20552;-74
2022/12/14 09:11:56;;;;;;;7.30;6.60;;;-0.20;70.60;;;;;;5019447;28;20434;-71
2022/12/14 09:14:23;;;;;;;7.50;6.70;;;-0.20;70.60;;;;;;5024042;28;20469;-74
2022/12/14 09:16:49;;;;;;;8.23;6.32;;;-0.20;70.40;;;;;;5024631;28;20434;-68
2022/12/14 09:19:16;;;;;;;8.17;7.10;;;-0.20;70.70;;;;;;5029702;28;20481;-77
2022/12/14 09:21:43;;;;;;;8.35;7.00;;;-0.20;71.30;;;;;;5021481;28;20446;-71
2022/12/14 09:24:11;;;;;;;10.45;7.05;;;-0.20;70.60;;;;;;5024234;28;20519;-76
2022/12/14 09:26:38;;;;;;;8.98;7.28;;;-0.10;71.00;;;;;;5024506;28;20481;-77
2022/12/14 09:29:05;;;;;;;7.53;6.82;;;-0.10;71.20;;;;;;5029360;28;20414;-79
2022/12/14 09:31:32;;;;;;;7.90;7.10;;;-0.20;71.40;;;;;;5028060;28;20415;-79
2022/12/14 09:33:59;;;;;;;7.75;6.85;;;-0.10;71.50;;;;;;5028728;28;20430;-78
2022/12/14 09:36:27;;;;;;;7.90;7.10;;;-0.10;71.10;;;;;;5030000;28;20465;-76
2022/12/14 09:38:56;;;;;;;8.18;7.05;;;-0.10;70.90;;;;;;5033862;28;20897;-76
2022/12/14 09:41:51;;;;;;;8.80;7.90;;;-0.10;70.80;;;;;;5031597;28;20441;-75
2022/12/14 09:44:25;;;;;;;8.98;7.50;;;-0.10;71.30;;;;;;5037315;28;20411;-76
2022/12/14 09:47:00;;;;;;;7.40;6.70;;;-0.20;71.50;;;;;;5035208;28;20424;-76
2022/12/14 09:49:29;;;;;;;8.88;8.07;;;-0.10;71.60;;;;;;5022922;28;20793;-77
2022/12/14 09:51:59;;;;;;;8.70;7.80;;;-0.20;72.50;;;;;;5027060;28;20431;-77
2022/12/14 09:54:28;;;;;;;8.53;7.73;;;-0.10;72.30;;;;;;5024663;28;20440;-75
2022/12/14 09:57:00;;;;;;;9.50;8.00;;;-0.10;73.20;;;;;;5028716;28;20439;-76
2022/12/14 09:59:30;;;;;;;9.10;8.20;;;-0.10;73.30;;;;;;5030712;28;20542;-78
2022/12/14 10:02:16;;;;;;;9.65;8.27;;;0.00;73.70;;;;;;5035211;28;20677;-77
2022/12/14 10:04:51;;;;;;;8.98;8.15;;;-0.10;74.40;;;;;;5026464;28;20913;-75
2022/12/14 10:07:23;;;;;;;9.35;8.40;;;-0.10;76.10;;;;;;5024544;28;20426;-77
2022/12/14 10:09:58;;;;;;;9.73;8.80;;;-0.20;75.90;;;;;;5030382;28;20542;-75
2022/12/14 10:12:39;;;;;;;11.05;8.35;;;-0.20;76.60;;;;;;5024955;28;20462;-76
2022/12/14 10:15:18;;;;;;;10.40;9.50;;;-0.10;77.10;;;;;;5027473;28;20433;-77
2022/12/14 10:18:19;;;;;;;9.40;8.32;;;-0.10;77.50;;;;;;5025652;28;20415;-74
2022/12/14 10:20:52;;;;;;;11.82;9.32;;;-0.10;78.20;;;;;;5026768;28;20436;-76
2022/12/14 10:23:22;;;;;;;9.95;8.95;;;-0.20;79.00;;;;;;5023032;28;20439;-74
2022/12/14 10:25:51;;;;;;;10.13;9.13;;;-0.20;79.50;;;;;;5021240;28;20431;-74
2022/12/14 10:28:24;;;;;;;10.32;9.32;;;-0.30;80.10;;;;;;5023649;28;20414;-74
2022/12/14 10:30:54;;;;;;;10.05;9.15;;;-0.30;80.80;;;;;;5024039;28;20509;-74
2022/12/14 10:33:24;;;;;;;10.18;9.10;;;-0.30;81.30;;;;;;5025839;28;20419;-76
2022/12/14 10:35:53;;;;;;;11.38;10.27;;;-0.30;82.00;;;;;;5019531;28;20437;-75
2022/12/14 10:38:26;;;;;;;11.10;10.00;;;-0.40;82.90;;;;;;5024861;28;20531;-77
2022/12/14 10:40:59;;;;;;;12.13;10.93;;;-0.40;83.30;;;;;;5021949;28;20861;-75
2022/12/14 10:43:38;;;;;;;12.32;11.13;;;-0.40;84.00;;;;;;5026639;28;20419;-75
2022/12/14 10:46:13;;;;;;;11.00;10.00;;;-0.30;84.00;;;;;;5027148;28;20935;-76
2022/12/14 10:48:46;;;;;;;10.50;9.50;;;-0.40;85.00;;;;;;5024837;28;20430;-77
2022/12/14 10:51:19;;;;;;;10.70;9.70;;;-0.30;85.20;;;;;;5025786;28;20505;-77
2022/12/14 10:53:50;;;;;;;11.25;10.15;;;-0.40;85.10;;;;;;5039106;28;20461;-76
2022/12/14 10:56:21;;;;;;;11.68;9.52;;;-0.40;86.00;;;;;;5023105;28;20435;-75
2022/12/14 10:59:24;;;;;;;11.05;9.95;;;-0.40;86.80;;;;;;5024173;28;20441;-77
2022/12/14 11:01:54;;;;;;;11.00;9.90;;;-0.50;87.70;;;;;;5022419;28;20425;-76
2022/12/14 11:04:29;;;;;;;11.25;10.25;;;-0.50;88.50;;;;;;5035287;28;20483;-76
2022/12/14 11:06:57;;;;;;;11.25;10.13;;;-0.50;88.80;;;;;;5025098;28;20431;-75
2022/12/14 11:09:25;;;;;;;11.30;10.20;;;-0.40;88.70;;;;;;5025594;28;20439;-76
2022/12/14 11:11:59;;;;;;;11.13;10.02;;;-0.40;88.20;;;;;;5025841;28;20473;-76
2022/12/14 11:14:27;;;;;;;10.73;9.63;;;-0.40;87.80;;;;;;5024552;28;20443;-76
2022/12/14 11:16:54;;;;;;;10.30;9.40;;;-0.40;87.60;;;;;;5026289;28;20512;-76
2022/12/14 11:19:22;;;;;;;11.20;10.20;;;-0.50;88.20;;;;;;5024781;28;20521;-77
2022/12/14 11:21:51;;;;;;;10.43;9.50;;;-0.50;88.80;;;;;;5030391;28;20446;-76
2022/12/14 11:24:24;;;;;;;10.20;9.20;;;-0.50;88.80;;;;;;5017154;28;20442;-74
2022/12/14 11:26:54;;;;;;;11.05;9.95;;;-0.50;88.90;;;;;;5017066;28;20449;-76
2022/12/14 11:29:27;;;;;;;10.70;9.65;;;-0.50;89.80;;;;;;5022475;28;20520;-76
2022/12/14 11:31:56;;;;;;;10.70;9.60;;;-0.60;89.20;;;;;;5026122;28;20946;-75
2022/12/14 11:34:30;;;;;;;10.90;9.90;;;-0.60;89.80;;;;;;5027967;28;20534;-74
2022/12/14 11:37:10;;;;;;;11.18;10.07;;;-0.60;90.20;;;;;;5017194;28;20435;-77
2022/12/14 11:39:39;;;;;;;12.07;10.77;;;-0.60;90.50;;;;;;5018257;28;20936;-77
2022/12/14 11:42:06;;;;;;;11.13;10.13;;;-0.60;90.60;;;;;;5024436;28;20434;-77
2022/12/14 11:44:35;;;;;;;11.32;10.13;;;-0.60;90.60;;;;;;5017769;28;20443;-76
2022/12/14 11:47:07;;;;;;;11.55;10.35;;;-0.60;90.60;;;;;;5024187;28;20504;-75
2022/12/14 11:49:36;;;;;;;10.85;9.75;;;-0.50;90.50;;;;;;5023887;28;20443;-75
2022/12/14 11:52:09;;;;;;;10.82;9.77;;;-0.50;90.50;;;;;;5022852;28;20450;-75
2022/12/14 11:54:40;;;;;;;11.67;10.57;;;-0.50;90.40;;;;;;5025157;28;21217;-76
2022/12/14 11:57:09;;;;;;;11.45;10.35;;;-0.50;90.60;;;;;;5026266;28;20465;-77
2022/12/14 11:59:45;;;;;;;11.65;10.55;;;-0.40;90.70;;;;;;5035140;28;20438;-77
2022/12/14 12:02:25;;;;;;;11.70;10.60;;;-0.40;90.30;;;;;;5019796;28;20427;-76
2022/12/14 12:04:56;;;;;;;11.32;10.15;;;-0.30;90.50;;;;;;5020809;28;20513;-76
2022/12/14 12:07:30;;;;;;;12.13;11.02;;;-0.30;90.80;;;;;;5016660;28;20438;-76
2022/12/14 12:10:06;;;;;;;11.70;10.60;;;-0.30;91.10;;;;;;5013632;28;20438;-76
2022/12/14 12:12:33;;;;;;;11.17;10.17;;;-0.30;91.00;;;;;;5020768;28;20426;-76
2022/12/14 12:15:00;;;;;;;12.68;11.48;;;-0.30;91.20;;;;;;5021320;28;20449;-76
2022/12/14 12:17:39;;;;;;;12.57;11.38;;;-0.30;91.30;;;;;;5023856;28;20437;-76
2022/12/14 12:20:26;;;;;;;12.05;10.85;;;-0.20;91.30;;;;;;5022436;28;20431;-77
2022/12/14 12:22:58;;;;;;;11.43;10.33;;;-0.20;91.30;;;;;;5023326;28;20449;-74
2022/12/14 12:25:27;;;;;;;12.27;11.13;;;-0.20;91.40;;;;;;5025180;28;20453;-77
2022/12/14 12:28:03;;;;;;;10.98;9.98;;;-0.20;91.50;;;;;;5031290;28;20782;-77
2022/12/14 12:30:34;;;;;;;13.18;11.88;;;-0.30;91.50;;;;;;5022110;28;20515;-77
2022/12/14 12:33:11;;;;;;;11.73;10.63;;;-0.30;91.80;;;;;;5023935;28;20435;-76
2022/12/14 12:35:45;;;;;;;12.35;11.25;;;-0.20;92.00;;;;;;5022085;28;20436;-76
2022/12/14 12:38:17;;;;;;;12.18;11.07;;;-0.20;92.10;;;;;;5021860;28;20526;-76
2022/12/14 12:40:55;;;;;;;12.10;11.00;;;-0.20;92.10;;;;;;5026517;28;20435;-77
2022/12/14 12:43:28;;;;;;;12.05;10.95;;;-0.20;92.20;;;;;;5019550;28;20443;-76
2022/12/14 12:45:58;;;;;;;12.60;11.40;;;-0.20;92.50;;;;;;5026717;28;20442;-78
2022/12/14 12:48:31;;;;;;;12.07;10.98;;;-0.20;92.70;;;;;;5028633;28;21100;-77
2022/12/14 12:51:01;;;;;;;11.60;10.50;;;-0.10;92.80;;;;;;5030435;28;20449;-78
2022/12/14 12:53:31;;;;;;;12.60;11.30;;;-0.10;92.70;;;;;;5027447;28;21013;-75
2022/12/14 12:56:05;;;;;;;11.68;10.57;;;0.00;92.80;;;;;;5027314;28;20877;-77
2022/12/14 12:58:34;;;;;;;12.30;11.10;;;0.00;92.70;;;;;;5025631;28;20438;-77
2022/12/14 13:01:05;;;;;;;12.05;10.85;;;0.00;92.70;;;;;;5027236;28;20435;-74
2022/12/14 13:03:37;;;;;;;11.97;10.87;;;0.00;91.90;;;;;;5025794;28;20603;-77
2022/12/14 13:06:09;;;;;;;12.27;11.07;;;0.00;92.00;;;;;;5022912;28;20431;-74
2022/12/14 13:08:39;;;;;;;12.43;11.25;;;-0.10;92.20;;;;;;5017019;28;20436;-75
2022/12/14 13:11:16;;;;;;;12.40;11.30;;;0.00;92.30;;;;;;5025669;28;21251;-76
2022/12/14 13:13:48;;;;;;;12.20;11.10;;;0.00;92.50;;;;;;5021702;28;20442;-77